Time;durP1;ratioP1;P1;durP2;ratioP2;P2;SDS_P1;SDS_P2;PMS_P1;PMS_P2;Temp;Humidity;BMP_temperature;BMP_pressure;BME280_temperature;BME280_humidity;BME280_pressure;Samples;Min_cycle;Max_cycle;Signal;HPM_P1;HPM_P2
2024/03/09 00:03:04;;;;;;;92.30;40.50;;;;;;;-2.13;66.66;100508.73;130973;1257;107566;-79
2024/03/09 00:06:10;;;;;;;94.50;40.70;;;;;;;-2.11;66.56;100506.34;131009;1254;108603;-79
2024/03/09 00:09:16;;;;;;;94.00;39.80;;;;;;;-2.03;66.56;100500.77;131091;1253;106189;-79
2024/03/09 00:12:22;;;;;;;104.10;43.90;;;;;;;-1.98;66.30;100501.23;131071;1253;108622;-79
2024/03/09 00:15:28;;;;;;;95.50;42.70;;;;;;;-1.92;66.61;100501.70;131049;1253;108621;-78
2024/03/09 00:18:34;;;;;;;114.40;46.90;;;;;;;-1.88;66.27;100503.27;131083;1263;108569;-78
2024/03/09 00:21:40;;;;;;;111.00;46.40;;;;;;;-1.85;66.29;100502.98;131028;1254;109495;-79
2024/03/09 00:24:45;;;;;;;106.10;44.60;;;;;;;-1.83;66.55;100498.34;130967;1253;108700;-78
2024/03/09 00:27:52;;;;;;;127.80;53.70;;;;;;;-1.85;66.52;100500.89;131249;1256;107636;-79
2024/03/09 00:30:59;;;;;;;102.30;45.20;;;;;;;-1.91;66.55;100496.73;131264;1257;107385;-80
2024/03/09 00:34:05;;;;;;;99.80;44.80;;;;;;;-1.94;66.43;100492.73;131010;1258;106679;-79
2024/03/09 00:37:10;;;;;;;97.00;44.10;;;;;;;-2.02;66.54;100493.79;131030;1254;107571;-79
2024/03/09 00:40:17;;;;;;;95.60;42.80;;;;;;;-2.05;66.52;100496.00;130984;1254;107572;-79
2024/03/09 00:43:22;;;;;;;95.10;42.60;;;;;;;-2.07;66.39;100496.09;131099;1258;107585;-80
2024/03/09 00:46:28;;;;;;;98.20;43.70;;;;;;;-2.12;66.38;100496.64;131173;1263;106661;-77
2024/03/09 00:49:34;;;;;;;96.90;43.20;;;;;;;-2.15;66.76;100491.20;131161;1253;108650;-80
2024/03/09 00:52:40;;;;;;;96.60;43.80;;;;;;;-2.14;66.76;100491.02;130989;1257;108529;-78
2024/03/09 00:55:45;;;;;;;101.00;45.00;;;;;;;-2.23;66.02;100484.38;130979;1254;107604;-79
2024/03/09 00:58:55;;;;;;;101.10;45.90;;;;;;;-2.35;66.47;100489.45;131289;1253;107077;-77
2024/03/09 01:02:01;;;;;;;106.70;47.60;;;;;;;-2.39;66.54;100487.48;131197;1251;107073;-79
2024/03/09 01:05:09;;;;;;;124.80;56.30;;;;;;;-2.43;66.22;100481.40;130979;1263;106720;-79
2024/03/09 01:08:14;;;;;;;121.30;53.20;;;;;;;-2.54;66.55;100474.35;131001;1256;107356;-79
2024/03/09 01:11:22;;;;;;;114.80;48.90;;;;;;;-2.66;66.37;100466.85;130946;1255;109028;-78
2024/03/09 01:14:28;;;;;;;107.40;45.80;;;;;;;-2.67;66.88;100463.79;130994;1250;107597;-80
2024/03/09 01:17:35;;;;;;;108.30;46.20;;;;;;;-2.68;66.74;100464.71;131264;1257;107721;-80
2024/03/09 01:20:42;;;;;;;103.30;45.70;;;;;;;-2.70;66.59;100463.04;130955;1264;107102;-79
2024/03/09 01:23:47;;;;;;;103.30;43.60;;;;;;;-2.77;66.65;100461.73;130992;1261;107400;-78
2024/03/09 01:26:53;;;;;;;101.30;44.20;;;;;;;-2.77;67.00;100463.66;130959;1260;106307;-78
2024/03/09 01:29:59;;;;;;;98.40;44.00;;;;;;;-2.83;66.55;100462.52;130970;1264;108653;-78
2024/03/09 01:33:06;;;;;;;102.90;44.80;;;;;;;-2.87;67.05;100462.67;131048;1259;108623;-79
2024/03/09 01:36:12;;;;;;;101.00;45.80;;;;;;;-2.85;66.98;100460.88;131138;1257;106505;-78
2024/03/09 01:39:18;;;;;;;101.00;45.10;;;;;;;-2.86;67.19;100460.00;131024;1253;106946;-79
2024/03/09 01:42:23;;;;;;;101.10;44.60;;;;;;;-2.85;67.22;100456.69;131169;1254;108697;-79
2024/03/09 01:45:29;;;;;;;102.50;44.00;;;;;;;-2.85;67.04;100454.59;131029;1253;107660;-80
2024/03/09 01:48:35;;;;;;;99.00;42.80;;;;;;;-2.87;67.15;100454.84;131269;1254;106384;-79
2024/03/09 01:51:45;;;;;;;100.60;44.30;;;;;;;-2.91;66.91;100454.31;131206;1253;106498;-79
2024/03/09 01:54:55;;;;;;;96.20;42.40;;;;;;;-2.95;66.73;100455.02;130993;1263;106166;-79
2024/03/09 01:58:00;;;;;;;98.20;41.80;;;;;;;-3.13;66.52;100456.56;131039;1256;106743;-79
2024/03/09 02:01:21;;;;;;;98.70;42.70;;;;;;;-3.23;66.60;100454.70;131246;1263;107737;-79
2024/03/09 02:04:28;;;;;;;104.10;43.80;;;;;;;-3.20;67.07;100453.53;131300;1259;106663;-78
2024/03/09 02:07:35;;;;;;;101.80;43.30;;;;;;;-3.19;67.00;100453.34;131311;1257;107254;-78
2024/03/09 02:10:41;;;;;;;99.30;43.20;;;;;;;-3.16;67.09;100447.64;131141;1253;106289;-78
2024/03/09 02:13:46;;;;;;;102.40;43.80;;;;;;;-3.13;67.19;100443.21;130982;1254;107509;-78
2024/03/09 02:16:52;;;;;;;105.10;44.50;;;;;;;-3.12;67.14;100442.30;131024;1253;106585;-79
2024/03/09 02:19:57;;;;;;;103.70;44.90;;;;;;;-3.14;67.17;100441.50;131106;1251;107566;-79
2024/03/09 02:23:04;;;;;;;93.70;39.50;;;;;;;-3.17;67.25;100442.80;130996;1255;106795;-79
2024/03/09 02:26:10;;;;;;;86.80;38.80;;;;;;;-3.18;67.00;100443.21;131018;1263;106758;-80
2024/03/09 02:29:18;;;;;;;86.60;39.10;;;;;;;-3.20;67.12;100438.38;130973;1253;107244;-79
2024/03/09 02:32:24;;;;;;;94.60;39.20;;;;;;;-3.13;67.34;100441.09;131021;1258;106362;-79
2024/03/09 02:35:29;;;;;;;100.90;41.60;;;;;;;-3.01;67.34;100435.38;131004;1261;107939;-80
2024/03/09 02:38:35;;;;;;;103.00;41.00;;;;;;;-2.90;67.17;100435.10;131128;1261;106285;-79
2024/03/09 02:41:40;;;;;;;101.70;42.40;;;;;;;-2.85;67.03;100434.06;131248;1263;108590;-79
2024/03/09 02:44:46;;;;;;;109.60;44.30;;;;;;;-2.78;67.30;100430.23;131050;1254;106684;-79
2024/03/09 02:47:52;;;;;;;103.90;42.40;;;;;;;-2.72;67.38;100429.67;130997;1251;106771;-79
2024/03/09 02:50:58;;;;;;;104.40;44.30;;;;;;;-2.72;67.12;100432.64;131017;1254;108377;-79
2024/03/09 02:54:04;;;;;;;109.10;43.90;;;;;;;-2.75;66.89;100430.67;131052;1254;107046;-79
2024/03/09 02:57:15;;;;;;;104.50;45.30;;;;;;;-2.83;66.56;100432.59;131049;1251;106484;-78
2024/03/09 03:00:23;;;;;;;111.10;45.00;;;;;;;-2.89;67.08;100425.31;131250;1251;106125;-77
2024/03/09 03:03:48;;;;;;;107.70;44.00;;;;;;;-2.88;67.22;100421.98;131349;1257;105626;-82
2024/03/09 03:06:54;;;;;;;112.20;43.60;;;;;;;-2.85;67.17;100422.38;131099;1254;106651;-79
2024/03/09 03:10:00;;;;;;;108.30;45.20;;;;;;;-2.90;67.15;100423.29;131152;1263;107818;-79
2024/03/09 03:13:07;;;;;;;116.30;46.10;;;;;;;-3.02;66.72;100423.05;131023;1262;108322;-79
2024/03/09 03:16:17;;;;;;;104.70;45.00;;;;;;;-3.11;66.92;100419.10;131084;1261;107517;-79
2024/03/09 03:19:22;;;;;;;107.00;44.20;;;;;;;-3.15;67.17;100424.83;131106;1253;106247;-79
2024/03/09 03:22:29;;;;;;;103.00;44.10;;;;;;;-3.16;67.12;100422.94;131225;1264;106620;-79
2024/03/09 03:25:35;;;;;;;109.10;43.70;;;;;;;-3.16;66.93;100423.31;131272;1249;106732;-79
2024/03/09 03:28:41;;;;;;;104.30;44.00;;;;;;;-3.22;67.05;100422.48;131186;1264;105620;-76
2024/03/09 03:31:47;;;;;;;106.60;44.50;;;;;;;-3.23;67.21;100416.27;131276;1261;106619;-79
2024/03/09 03:34:54;;;;;;;109.30;44.40;;;;;;;-3.25;67.08;100414.77;131130;1251;106921;-79
2024/03/09 03:38:01;;;;;;;105.60;43.40;;;;;;;-3.27;67.21;100409.44;131309;1253;106354;-79
2024/03/09 03:41:08;;;;;;;105.90;43.70;;;;;;;-3.28;66.94;100405.68;131308;1251;106837;-79
2024/03/09 03:44:14;;;;;;;105.80;43.30;;;;;;;-3.37;66.79;100402.39;131256;1263;108520;-78
2024/03/09 03:47:19;;;;;;;105.30;43.10;;;;;;;-3.41;67.53;100403.76;131122;1254;107036;-79
2024/03/09 03:50:25;;;;;;;109.60;42.60;;;;;;;-3.41;67.29;100404.98;131319;1253;106285;-78
2024/03/09 03:53:31;;;;;;;102.80;43.50;;;;;;;-3.42;67.36;100407.45;131386;1253;107801;-79
2024/03/09 03:56:37;;;;;;;101.70;43.20;;;;;;;-3.45;67.20;100404.78;131279;1254;107134;-79
2024/03/09 03:59:42;;;;;;;99.90;42.60;;;;;;;-3.46;67.31;100407.96;131171;1253;106405;-78
2024/03/09 04:02:48;;;;;;;97.40;42.00;;;;;;;-3.48;67.42;100410.10;131120;1254;106665;-79
2024/03/09 04:05:54;;;;;;;101.60;43.20;;;;;;;-3.48;67.51;100412.04;130962;1251;108499;-80
2024/03/09 04:09:00;;;;;;;103.90;42.40;;;;;;;-3.48;67.40;100412.36;131024;1257;108556;-79
2024/03/09 04:12:06;;;;;;;105.50;43.30;;;;;;;-3.45;67.18;100402.54;131016;1254;108716;-79
2024/03/09 04:15:13;;;;;;;109.20;44.10;;;;;;;-3.49;67.29;100406.52;131180;1257;108673;-80
2024/03/09 04:18:21;;;;;;;112.30;44.90;;;;;;;-3.57;66.90;100406.65;130965;1260;106811;-79
2024/03/09 04:21:27;;;;;;;108.40;42.70;;;;;;;-3.69;67.34;100400.67;130944;1251;108344;-78
2024/03/09 04:24:33;;;;;;;106.50;42.30;;;;;;;-3.77;67.38;100396.82;130929;1251;106723;-80
2024/03/09 04:27:38;;;;;;;102.10;42.70;;;;;;;-3.78;67.71;100397.71;131071;1264;108725;-78
2024/03/09 04:30:44;;;;;;;99.00;41.60;;;;;;;-3.80;67.69;100397.27;130936;1257;105569;-80
2024/03/09 04:33:50;;;;;;;99.50;41.20;;;;;;;-3.85;67.30;100395.03;131002;1254;107739;-80
2024/03/09 04:36:56;;;;;;;112.80;43.70;;;;;;;-3.91;67.62;100396.80;131129;1254;107606;-79
2024/03/09 04:40:14;;;;;;;101.90;42.10;;;;;;;-3.92;67.29;100395.65;130973;1254;108663;-79
2024/03/09 04:43:20;;;;;;;103.40;41.80;;;;;;;-3.94;67.87;100391.52;130954;1254;106100;-79
2024/03/09 04:46:27;;;;;;;104.40;40.30;;;;;;;-3.91;67.58;100388.31;131003;1260;108467;-79
2024/03/09 04:49:33;;;;;;;105.10;43.70;;;;;;;-3.97;67.16;100393.20;130961;1252;106694;-81
2024/03/09 04:52:39;;;;;;;97.20;42.40;;;;;;;-4.02;67.60;100390.95;131073;1254;108583;-79
2024/03/09 04:55:48;;;;;;;109.00;43.70;;;;;;;-4.01;67.75;100391.11;130921;1256;107676;-78
2024/03/09 04:58:54;;;;;;;103.30;43.30;;;;;;;-4.01;67.22;100391.43;130932;1252;106989;-79
2024/03/09 05:01:59;;;;;;;108.40;43.50;;;;;;;-4.12;67.14;100398.27;130930;1255;108754;-78
2024/03/09 05:05:06;;;;;;;109.20;43.90;;;;;;;-4.10;67.52;100397.16;131257;1256;107578;-78
2024/03/09 05:08:11;;;;;;;109.70;44.40;;;;;;;-4.06;67.44;100393.70;131184;1254;107146;-78
2024/03/09 05:11:17;;;;;;;105.70;43.40;;;;;;;-4.02;67.63;100393.92;131208;1255;108727;-78
2024/03/09 05:14:22;;;;;;;101.20;42.30;;;;;;;-3.96;67.59;100390.58;131063;1257;106403;-78
2024/03/09 05:17:28;;;;;;;90.50;39.60;;;;;;;-3.93;67.70;100392.38;131038;1254;106385;-80
2024/03/09 05:20:34;;;;;;;88.30;38.90;;;;;;;-3.93;67.75;100389.76;131140;1255;106993;-78
2024/03/09 05:23:40;;;;;;;94.70;38.90;;;;;;;-3.86;67.90;100391.60;131211;1253;107198;-79
2024/03/09 05:26:46;;;;;;;86.90;37.40;;;;;;;-3.78;67.77;100391.13;130922;1251;106401;-79
2024/03/09 05:29:52;;;;;;;91.80;38.40;;;;;;;-3.66;67.75;100391.16;131210;1251;107421;-79
2024/03/09 05:32:59;;;;;;;90.60;37.20;;;;;;;-3.62;67.23;100389.45;131024;1263;106549;-79
2024/03/09 05:36:05;;;;;;;98.10;40.80;;;;;;;-3.56;67.70;100389.75;131215;1251;106720;-79
2024/03/09 05:39:13;;;;;;;100.50;41.70;;;;;;;-3.42;67.80;100386.07;131106;1254;108706;-79
2024/03/09 05:42:21;;;;;;;96.70;40.90;;;;;;;-3.28;67.89;100384.47;131050;1253;108727;-79
2024/03/09 05:45:27;;;;;;;104.40;42.30;;;;;;;-3.19;67.68;100381.84;131028;1263;109117;-80
2024/03/09 05:48:33;;;;;;;102.70;43.00;;;;;;;-3.15;67.76;100382.70;131042;1251;107760;-79
2024/03/09 05:51:38;;;;;;;101.50;43.20;;;;;;;-3.09;68.04;100381.77;131047;1254;107389;-80
2024/03/09 05:54:44;;;;;;;101.60;43.20;;;;;;;-3.04;67.83;100380.35;131199;1250;108487;-79
2024/03/09 05:57:51;;;;;;;100.40;43.40;;;;;;;-3.00;67.91;100381.41;131151;1254;105381;-80
2024/03/09 06:00:57;;;;;;;101.30;44.50;;;;;;;-2.97;68.01;100380.05;131255;1251;106531;-79
2024/03/09 06:04:03;;;;;;;100.50;45.80;;;;;;;-2.90;68.61;100381.52;130967;1254;108581;-80
2024/03/09 06:07:09;;;;;;;101.20;46.10;;;;;;;-2.85;68.24;100381.28;131014;1254;107662;-79
2024/03/09 06:10:18;;;;;;;107.90;46.60;;;;;;;-2.77;68.42;100386.73;131052;1253;108695;-80
2024/03/09 06:13:23;;;;;;;109.20;49.10;;;;;;;-2.68;68.40;100381.98;131212;1251;107552;-80
2024/03/09 06:16:30;;;;;;;112.70;49.80;;;;;;;-2.60;68.61;100381.10;131119;1253;107679;-79
2024/03/09 06:19:36;;;;;;;112.00;48.40;;;;;;;-2.57;68.40;100380.11;131249;1254;106838;-79
2024/03/09 06:22:43;;;;;;;107.40;48.40;;;;;;;-2.53;68.88;100383.59;131190;1253;108002;-80
2024/03/09 06:25:49;;;;;;;108.50;50.00;;;;;;;-2.44;69.11;100388.05;131213;1254;108594;-79
2024/03/09 06:28:55;;;;;;;111.30;50.00;;;;;;;-2.39;69.21;100385.56;131449;1250;107615;-79
2024/03/09 06:32:01;;;;;;;104.60;46.60;;;;;;;-2.30;69.26;100386.59;131147;1251;105374;-79
2024/03/09 06:35:07;;;;;;;105.10;47.30;;;;;;;-2.28;69.54;100385.11;131015;1253;108546;-79
2024/03/09 06:38:13;;;;;;;108.60;49.20;;;;;;;-2.23;69.98;100388.54;130990;1253;108607;-79
2024/03/09 06:41:19;;;;;;;107.70;47.00;;;;;;;-2.11;70.32;100387.14;131183;1253;108604;-79
2024/03/09 06:44:25;;;;;;;96.30;44.60;;;;;;;-1.99;70.77;100385.39;131085;1254;108377;-80
2024/03/09 06:47:32;;;;;;;86.70;40.10;;;;;;;-1.85;71.04;100384.92;130976;1254;106828;-79
2024/03/09 06:50:43;;;;;;;82.30;38.50;;;;;;;-1.66;71.43;100383.85;131176;1253;108970;-78
2024/03/09 06:53:50;;;;;;;80.40;39.50;;;;;;;-1.43;71.76;100379.82;131288;1253;106862;-79
2024/03/09 06:56:55;;;;;;;81.40;38.70;;;;;;;-1.18;71.80;100379.97;131305;1254;106923;-79
2024/03/09 07:00:01;;;;;;;78.20;39.00;;;;;;;-0.97;71.96;100382.80;131103;1252;106480;-80
2024/03/09 07:03:07;;;;;;;80.00;39.70;;;;;;;-0.80;72.01;100380.36;130991;1254;108524;-80
2024/03/09 07:06:13;;;;;;;77.70;39.60;;;;;;;-0.63;72.28;100376.73;131280;1255;106890;-79
2024/03/09 07:09:20;;;;;;;71.50;36.10;;;;;;;-0.48;72.34;100378.05;131141;1251;107789;-80
2024/03/09 07:12:26;;;;;;;74.10;37.90;;;;;;;-0.32;72.54;100373.90;131169;1254;105607;-80
2024/03/09 07:15:32;;;;;;;72.60;36.90;;;;;;;-0.19;72.82;100378.45;131182;1251;106450;-79
2024/03/09 07:18:38;;;;;;;70.60;36.30;;;;;;;-0.06;72.67;100375.86;131300;1254;108569;-79
2024/03/09 07:21:43;;;;;;;72.80;36.40;;;;;;;0.07;72.90;100377.77;131256;1254;107720;-79
2024/03/09 07:24:51;;;;;;;65.30;35.60;;;;;;;0.20;73.03;100378.30;131246;1254;109058;-78
2024/03/09 07:27:58;;;;;;;88.90;41.00;;;;;;;0.32;73.11;100378.34;130975;1254;106658;-80
2024/03/09 07:31:04;;;;;;;87.90;40.60;;;;;;;0.44;73.07;100374.70;131338;1254;108611;-77
2024/03/09 07:34:10;;;;;;;71.50;34.30;;;;;;;0.62;73.32;100374.41;131262;1254;108662;-77
2024/03/09 07:37:16;;;;;;;69.70;31.90;;;;;;;0.82;73.42;100370.47;131116;1253;108665;-78
2024/03/09 07:40:24;;;;;;;79.00;36.70;;;;;;;1.04;73.11;100364.64;131104;1263;106515;-81
2024/03/09 07:43:32;;;;;;;117.60;46.50;;;;;;;1.27;73.14;100367.52;130991;1254;108661;-82
2024/03/09 07:46:37;;;;;;;86.90;38.50;;;;;;;1.48;73.06;100371.51;131015;1254;106423;-79
2024/03/09 07:49:44;;;;;;;73.40;32.80;;;;;;;1.66;72.93;100367.78;131009;1254;106336;-79
2024/03/09 07:52:52;;;;;;;88.40;36.20;;;;;;;1.81;72.77;100365.13;131151;1254;108659;-76
2024/03/09 07:55:58;;;;;;;84.00;35.20;;;;;;;1.94;72.78;100362.90;131045;1249;106506;-77
2024/03/09 07:59:07;;;;;;;79.00;35.00;;;;;;;2.07;72.61;100358.75;131145;1253;107641;-78
2024/03/09 08:02:12;;;;;;;90.20;38.00;;;;;;;2.18;72.43;100352.67;131052;1264;106836;-78
2024/03/09 08:05:19;;;;;;;82.50;34.20;;;;;;;2.27;72.24;100352.26;131053;1256;106323;-78
2024/03/09 08:08:25;;;;;;;68.20;30.60;;;;;;;2.37;72.17;100344.09;131093;1252;108764;-77
2024/03/09 08:11:31;;;;;;;59.50;28.60;;;;;;;2.47;72.00;100347.80;131273;1253;107832;-77
2024/03/09 08:14:37;;;;;;;58.90;29.50;;;;;;;2.59;71.88;100345.15;131238;1252;108671;-77
2024/03/09 08:17:43;;;;;;;51.30;27.50;;;;;;;2.69;71.74;100345.52;131121;1253;109141;-78
2024/03/09 08:20:49;;;;;;;44.20;24.30;;;;;;;2.81;71.72;100343.91;131222;1253;107712;-77
2024/03/09 08:23:54;;;;;;;53.70;28.00;;;;;;;2.90;71.52;100343.09;131424;1254;108701;-77
2024/03/09 08:27:02;;;;;;;46.50;24.50;;;;;;;3.01;71.33;100341.52;131274;1251;108864;-77
2024/03/09 08:30:13;;;;;;;43.20;24.10;;;;;;;3.09;71.03;100339.33;131152;1254;107840;-78
2024/03/09 08:33:19;;;;;;;40.40;22.80;;;;;;;3.20;70.71;100336.91;131430;1253;107650;-79
2024/03/09 08:36:26;;;;;;;39.40;23.60;;;;;;;3.29;70.80;100333.45;131320;1263;108504;-79
2024/03/09 08:39:32;;;;;;;40.60;22.70;;;;;;;3.38;70.32;100329.68;131013;1254;108890;-79
2024/03/09 08:42:37;;;;;;;41.80;23.50;;;;;;;3.45;70.21;100327.79;130955;1251;106785;-78
2024/03/09 08:45:43;;;;;;;39.60;22.30;;;;;;;3.54;70.36;100325.04;130981;1261;108460;-78
2024/03/09 08:48:49;;;;;;;38.60;22.80;;;;;;;3.64;70.13;100325.11;130953;1251;108151;-77
2024/03/09 08:51:54;;;;;;;40.30;23.60;;;;;;;3.71;69.91;100327.71;130930;1251;108601;-78
2024/03/09 08:55:00;;;;;;;42.90;25.00;;;;;;;3.79;70.14;100323.17;130934;1254;108582;-78
2024/03/09 08:58:06;;;;;;;39.80;23.10;;;;;;;3.88;69.71;100325.00;131219;1254;108455;-77
2024/03/09 09:01:11;;;;;;;41.00;23.40;;;;;;;3.95;69.74;100320.92;131096;1254;106661;-77
2024/03/09 09:04:17;;;;;;;39.10;22.80;;;;;;;4.06;69.58;100321.97;131079;1250;106637;-76
2024/03/09 09:07:23;;;;;;;41.40;24.40;;;;;;;4.15;69.31;100319.73;131136;1251;107953;-76
2024/03/09 09:10:29;;;;;;;43.50;24.90;;;;;;;4.24;69.44;100317.63;131291;1250;106527;-77
2024/03/09 09:13:34;;;;;;;36.80;21.50;;;;;;;4.37;69.05;100316.18;131109;1250;107741;-77
2024/03/09 09:16:41;;;;;;;35.20;21.00;;;;;;;4.48;68.91;100314.17;131229;1253;107800;-77
2024/03/09 09:19:48;;;;;;;37.70;21.40;;;;;;;4.57;68.55;100308.23;131010;1251;108731;-76
2024/03/09 09:22:55;;;;;;;35.20;20.90;;;;;;;4.65;68.78;100305.88;131010;1251;106714;-76
2024/03/09 09:26:01;;;;;;;36.70;21.40;;;;;;;4.73;68.16;100298.58;131063;1253;107774;-76
2024/03/09 09:29:08;;;;;;;36.60;20.90;;;;;;;4.81;68.04;100292.33;131327;1250;105941;-77
2024/03/09 09:32:14;;;;;;;32.80;19.60;;;;;;;4.88;67.52;100295.17;130902;1254;144754;-76
2024/03/09 09:35:20;;;;;;;33.70;20.80;;;;;;;4.96;67.38;100292.29;131084;1250;108760;-77
2024/03/09 09:38:26;;;;;;;31.90;18.50;;;;;;;5.02;67.11;100290.73;130973;1258;108747;-77
2024/03/09 09:41:34;;;;;;;31.80;19.90;;;;;;;5.10;66.07;100290.00;131056;1254;107345;-76
2024/03/09 09:44:42;;;;;;;33.30;20.90;;;;;;;5.21;66.75;100287.91;131031;1253;107643;-77
2024/03/09 09:47:49;;;;;;;31.20;19.40;;;;;;;5.31;66.49;100285.05;131300;1251;106314;-76
2024/03/09 09:50:56;;;;;;;35.20;19.50;;;;;;;5.39;65.82;100283.70;131416;1254;107652;-78
2024/03/09 09:54:03;;;;;;;34.30;19.50;;;;;;;5.46;66.30;100275.73;131322;1251;107588;-76
2024/03/09 09:57:10;;;;;;;32.20;19.50;;;;;;;5.52;65.76;100270.70;131309;1250;107798;-77
2024/03/09 10:00:17;;;;;;;33.70;19.60;;;;;;;5.57;65.25;100266.04;131395;1253;107701;-76
2024/03/09 10:03:23;;;;;;;30.70;19.50;;;;;;;5.63;64.86;100264.35;131071;1250;106381;-77
2024/03/09 10:06:29;;;;;;;33.20;21.40;;;;;;;5.68;65.34;100263.93;131013;1253;108752;-76
2024/03/09 10:09:35;;;;;;;34.60;19.90;;;;;;;5.76;65.34;100263.16;131013;1253;107486;-76
2024/03/09 10:12:41;;;;;;;32.90;20.50;;;;;;;5.84;65.59;100256.30;131098;1253;107698;-76
2024/03/09 10:15:49;;;;;;;37.40;22.40;;;;;;;5.93;65.25;100251.75;130986;1253;108633;-76
2024/03/09 10:18:57;;;;;;;33.00;20.70;;;;;;;5.97;65.11;100249.19;131255;1253;108690;-76
2024/03/09 10:22:03;;;;;;;33.00;20.50;;;;;;;6.03;64.55;100253.09;131098;1254;106551;-76
2024/03/09 10:25:10;;;;;;;33.60;20.20;;;;;;;6.09;64.33;100251.55;131016;1253;107678;-77
2024/03/09 10:28:15;;;;;;;32.40;20.00;;;;;;;6.13;64.00;100246.46;131230;1251;108587;-78
2024/03/09 10:31:21;;;;;;;34.60;20.60;;;;;;;6.19;64.51;100247.05;132320;1248;107738;-78
2024/03/09 10:34:28;;;;;;;29.70;18.40;;;;;;;6.25;64.22;100243.34;133153;1250;107546;-77
2024/03/09 10:37:36;;;;;;;27.20;16.80;;;;;;;6.32;64.06;100242.11;131647;1251;107033;-76
2024/03/09 10:40:42;;;;;;;28.20;17.40;;;;;;;6.40;63.41;100235.24;131383;1253;108549;-78
2024/03/09 10:43:48;;;;;;;32.30;19.70;;;;;;;6.44;62.78;100235.76;131299;1253;106366;-78
2024/03/09 10:47:02;;;;;;;32.60;19.40;;;;;;;6.47;62.79;100236.09;131262;1252;106693;-78
2024/03/09 10:50:16;;;;;;;32.90;19.10;;;;;;;6.51;63.38;100225.32;131240;1248;107556;-78
2024/03/09 10:53:35;;;;;;;29.70;19.20;;;;;;;6.58;63.23;100220.52;131258;1250;106953;-77
2024/03/09 10:56:41;;;;;;;33.10;19.90;;;;;;;6.64;62.66;100217.67;131563;1250;108675;-79
2024/03/09 10:59:49;;;;;;;33.70;19.90;;;;;;;6.72;63.07;100214.17;131255;1251;108432;-78
2024/03/09 11:02:55;;;;;;;32.10;19.50;;;;;;;6.78;63.32;100208.38;131131;1250;107583;-78
2024/03/09 11:06:01;;;;;;;31.40;19.80;;;;;;;6.84;63.53;100202.89;131116;1252;108719;-78
2024/03/09 11:09:11;;;;;;;35.30;21.50;;;;;;;6.91;63.47;100200.02;131040;1252;108567;-78
2024/03/09 11:12:19;;;;;;;34.50;21.10;;;;;;;6.94;62.99;100193.39;131199;1253;107199;-78
2024/03/09 11:15:36;;;;;;;35.50;21.40;;;;;;;6.98;63.30;100193.09;131307;1251;107773;-78
2024/03/09 11:18:45;;;;;;;35.00;21.10;;;;;;;7.01;62.76;100181.90;131126;1254;106877;-77
2024/03/09 11:21:52;;;;;;;32.80;21.40;;;;;;;7.06;62.59;100180.70;131144;1250;108445;-78
2024/03/09 11:24:58;;;;;;;36.40;21.70;;;;;;;7.09;62.58;100176.20;131204;1250;106722;-76
2024/03/09 11:28:03;;;;;;;35.60;22.10;;;;;;;7.12;62.93;100178.60;131504;1251;108684;-77
2024/03/09 11:31:14;;;;;;;34.40;22.10;;;;;;;7.16;62.83;100172.41;131394;1252;107101;-76
2024/03/09 11:34:21;;;;;;;34.10;21.80;;;;;;;7.21;62.86;100171.99;131297;1251;106873;-76
2024/03/09 11:37:50;;;;;;;36.20;22.10;;;;;;;7.24;62.81;100166.44;131165;1250;106495;-76
2024/03/09 11:40:56;;;;;;;33.80;20.40;;;;;;;7.30;63.29;100154.60;131085;1254;107735;-77
2024/03/09 11:44:04;;;;;;;32.70;20.60;;;;;;;7.41;62.89;100145.49;131080;1253;108629;-76
2024/03/09 11:47:10;;;;;;;31.60;20.80;;;;;;;7.49;62.84;100137.34;131287;1260;106572;-76
2024/03/09 11:50:17;;;;;;;31.60;20.10;;;;;;;7.53;62.43;100136.80;131023;1253;106647;-77
2024/03/09 11:53:24;;;;;;;26.70;18.10;;;;;;;7.55;62.57;100132.89;131280;1253;108634;-77
2024/03/09 11:56:29;;;;;;;28.90;18.90;;;;;;;7.58;62.59;100133.19;131181;1253;108576;-77
2024/03/09 11:59:35;;;;;;;30.30;20.70;;;;;;;7.63;62.39;100134.54;131253;1253;108761;-77
2024/03/09 12:02:41;;;;;;;32.10;20.30;;;;;;;7.71;62.89;100129.23;131100;1253;109334;-76
2024/03/09 12:05:46;;;;;;;30.60;18.20;;;;;;;7.79;62.13;100123.91;131260;1250;106300;-76
2024/03/09 12:08:52;;;;;;;29.90;19.50;;;;;;;7.86;62.21;100120.80;131385;1253;108481;-77
2024/03/09 12:11:58;;;;;;;31.10;18.80;;;;;;;7.90;62.44;100116.48;131282;1253;108543;-77
2024/03/09 12:15:04;;;;;;;31.70;19.80;;;;;;;7.95;62.06;100111.60;131302;1253;106377;-76
2024/03/09 12:18:12;;;;;;;28.20;18.80;;;;;;;8.00;61.82;100111.18;131195;1253;108805;-76
2024/03/09 12:21:18;;;;;;;35.10;21.00;;;;;;;8.02;61.51;100106.39;131767;1250;108947;-77
2024/03/09 12:24:24;;;;;;;34.40;21.70;;;;;;;8.03;61.91;100103.97;131152;1251;108687;-76
2024/03/09 12:27:30;;;;;;;32.50;19.60;;;;;;;8.06;61.76;100095.39;131439;1250;107893;-76
2024/03/09 12:30:36;;;;;;;37.50;21.00;;;;;;;8.09;61.28;100088.20;131099;1251;106360;-77
2024/03/09 12:33:43;;;;;;;38.00;22.20;;;;;;;8.14;61.36;100089.15;131050;1253;106477;-76
2024/03/09 12:36:57;;;;;;;30.60;18.80;;;;;;;8.15;61.33;100081.60;131272;1266;109150;-77
2024/03/09 12:40:17;;;;;;;28.80;18.90;;;;;;;8.16;61.56;100079.55;131068;1253;106621;-77
2024/03/09 12:43:24;;;;;;;32.10;19.40;;;;;;;8.22;61.24;100080.23;131296;1254;107796;-77
2024/03/09 12:46:30;;;;;;;32.60;19.10;;;;;;;8.27;61.18;100081.96;131121;1254;108768;-76
2024/03/09 12:49:37;;;;;;;28.50;18.30;;;;;;;8.28;61.37;100076.34;131043;1254;107762;-76
2024/03/09 12:52:44;;;;;;;28.80;18.10;;;;;;;8.31;60.74;100072.00;131247;1250;107638;-78
2024/03/09 12:55:50;;;;;;;35.70;20.90;;;;;;;8.34;60.49;100073.02;131042;1251;108483;-76
2024/03/09 12:58:56;;;;;;;32.20;20.00;;;;;;;8.34;60.75;100076.13;130987;1254;106554;-76
2024/03/09 13:02:05;;;;;;;34.30;20.00;;;;;;;8.36;60.81;100077.55;131196;1254;107602;-79
2024/03/09 13:05:14;;;;;;;33.50;20.60;;;;;;;8.36;60.96;100079.14;131244;1251;106374;-78
2024/03/09 13:08:23;;;;;;;26.60;17.10;;;;;;;8.38;60.68;100077.68;130958;1254;106270;-77
2024/03/09 13:11:30;;;;;;;28.00;17.70;;;;;;;8.42;60.51;100074.33;130925;1254;108761;-77
2024/03/09 13:14:36;;;;;;;26.30;16.90;;;;;;;8.44;60.35;100075.78;130999;1255;108655;-77
2024/03/09 13:17:43;;;;;;;27.20;16.90;;;;;;;8.45;60.42;100068.21;130975;1253;106283;-76
2024/03/09 13:20:51;;;;;;;26.60;16.70;;;;;;;8.47;60.23;100066.34;132395;1250;107482;-78
2024/03/09 13:23:58;;;;;;;26.40;16.80;;;;;;;8.49;60.13;100065.01;131329;1251;107183;-77
2024/03/09 13:27:07;;;;;;;27.30;17.80;;;;;;;8.50;59.65;100062.61;131167;1251;106357;-78
2024/03/09 13:30:26;;;;;;;28.70;17.90;;;;;;;8.51;59.87;100057.41;131448;1257;107865;-79
2024/03/09 13:33:41;;;;;;;28.90;17.70;;;;;;;8.54;59.86;100050.89;133666;1250;106630;-79
2024/03/09 13:36:47;;;;;;;26.50;16.70;;;;;;;8.56;59.51;100049.98;131668;1251;108682;-77
2024/03/09 13:39:52;;;;;;;24.80;16.20;;;;;;;8.59;59.18;100046.55;131051;1254;106997;-77
2024/03/09 13:42:58;;;;;;;30.90;18.10;;;;;;;8.62;59.35;100042.86;131147;1254;108762;-77
2024/03/09 13:46:05;;;;;;;28.50;16.50;;;;;;;8.64;59.57;100041.08;131204;1254;108040;-77
2024/03/09 13:49:13;;;;;;;27.40;17.80;;;;;;;8.68;59.39;100041.43;131212;1254;108658;-78
2024/03/09 13:52:19;;;;;;;28.70;17.30;;;;;;;8.73;59.47;100037.41;131226;1250;106388;-77